createdAt,value
2022-08-22T00:01:30.050Z,12.54
2022-08-22T00:02:44.327Z,12.92
2022-08-22T00:02:47.663Z,13.87
2022-08-22T00:02:52.977Z,10.64
2022-08-22T00:03:01.923Z,13.49
2022-08-22T00:04:33.356Z,14.63
2022-08-22T00:07:06.586Z,13.30
2022-08-22T00:09:47.143Z,13.68
2022-08-22T00:12:41.173Z,13.11
2022-08-22T00:15:42.499Z,13.49
2022-08-22T00:18:22.990Z,13.87
2022-08-22T00:21:17.156Z,12.92
2022-08-22T00:24:05.447Z,13.11
2022-08-22T00:26:53.439Z,18.24
2022-08-22T00:29:33.378Z,14.63
2022-08-22T00:32:24.379Z,16.34
2022-08-22T00:35:05.709Z,15.77
2022-08-22T00:37:43.996Z,15.39
2022-08-22T00:40:30.716Z,12.54
2022-08-22T00:43:42.537Z,15.77
2022-08-22T00:46:46.814Z,14.82
2022-08-22T00:49:56.936Z,13.49
2022-08-22T00:52:58.863Z,13.49
2022-08-22T00:55:53.675Z,15.77
2022-08-22T00:58:45.266Z,14.44
2022-08-22T01:01:19.083Z,12.92
2022-08-22T01:03:48.354Z,16.34
2022-08-22T01:06:45.253Z,14.25
2022-08-22T01:09:41.280Z,11.97
2022-08-22T01:12:43.919Z,16.91
2022-08-22T01:15:21.881Z,14.63
2022-08-22T01:18:52.526Z,14.06
2022-08-22T01:22:23.732Z,17.29
2022-08-22T01:25:49.830Z,13.30
2022-08-22T01:28:49.012Z,12.16
2022-08-22T01:32:08.991Z,14.63
2022-08-22T01:35:37.054Z,13.30
2022-08-22T01:38:23.628Z,12.92
2022-08-22T01:41:29.274Z,15.01
2022-08-22T01:44:34.309Z,12.92
2022-08-22T01:47:30.963Z,12.92
2022-08-22T01:50:11.368Z,13.87
2022-08-22T01:52:53.502Z,11.78
2022-08-22T01:55:52.475Z,12.92
2022-08-22T01:58:32.007Z,13.68
2022-08-22T02:01:10.863Z,12.54
2022-08-22T02:03:57.958Z,13.87
2022-08-22T02:06:41.331Z,11.97
2022-08-22T02:09:47.458Z,13.30
2022-08-22T02:12:31.292Z,13.68
2022-08-22T02:15:22.756Z,17.10
2022-08-22T02:18:09.128Z,15.58
2022-08-22T02:20:48.090Z,12.73
2022-08-22T02:23:52.784Z,13.68
2022-08-22T02:27:04.316Z,11.40
2022-08-22T02:29:58.932Z,13.87
2022-08-22T02:32:58.640Z,14.44
2022-08-22T02:35:52.071Z,11.97
2022-08-22T02:38:40.955Z,11.78
2022-08-22T02:41:24.914Z,15.58
2022-08-22T02:43:59.835Z,14.63
2022-08-22T02:47:15.461Z,14.06
2022-08-22T02:49:48.094Z,13.49
2022-08-22T02:52:59.788Z,14.63
2022-08-22T02:55:39.208Z,15.77
2022-08-22T02:58:24.644Z,12.16
2022-08-22T03:01:03.451Z,12.92
2022-08-22T03:03:41.167Z,14.06
2022-08-22T03:06:32.722Z,14.63
2022-08-22T03:09:08.280Z,16.91
2022-08-22T03:11:43.863Z,13.11
2022-08-22T03:14:28.704Z,13.30
2022-08-22T03:17:12.059Z,13.11
2022-08-22T03:20:35.940Z,11.40
2022-08-22T03:23:15.539Z,12.35
2022-08-22T03:26:00.885Z,12.54
2022-08-22T03:28:56.097Z,16.34
2022-08-22T03:31:29.943Z,12.35
2022-08-22T03:34:27.139Z,11.97
2022-08-22T03:37:19.331Z,10.26
2022-08-22T03:40:06.939Z,13.11
2022-08-22T03:42:49.023Z,12.54
2022-08-22T03:45:34.752Z,14.06
2022-08-22T03:48:51.520Z,14.63
2022-08-22T03:52:14.065Z,13.68
2022-08-22T03:55:30.058Z,17.48
2022-08-22T03:58:35.712Z,15.01
2022-08-22T04:01:39.146Z,12.73
2022-08-22T04:04:39.794Z,14.63
2022-08-22T04:07:43.682Z,15.58
2022-08-22T04:10:39.786Z,15.01
2022-08-22T04:13:32.764Z,12.35
2022-08-22T04:20:40.052Z,14.06
2022-08-22T04:23:32.447Z,13.30
2022-08-22T04:26:12.733Z,15.58
2022-08-22T04:29:14.039Z,11.59
2022-08-22T04:32:01.054Z,15.39
2022-08-22T04:35:19.793Z,12.73
2022-08-22T04:38:31.083Z,12.73
2022-08-22T04:41:12.039Z,15.20
2022-08-22T04:43:47.532Z,13.87
2022-08-22T04:46:41.581Z,15.39
2022-08-22T04:49:41.514Z,13.68
2022-08-22T04:52:48.395Z,14.44
2022-08-22T04:55:31.601Z,13.87
2022-08-22T04:58:35.675Z,15.77
2022-08-22T05:01:19.969Z,15.58
2022-08-22T05:04:03.463Z,15.96
2022-08-22T05:06:39.833Z,13.49
2022-08-22T05:09:16.451Z,15.77
2022-08-22T05:11:46.405Z,14.44
2022-08-22T05:14:26.437Z,17.48
2022-08-22T05:16:57.518Z,15.77
2022-08-22T05:19:37.426Z,13.49
2022-08-22T05:22:19.213Z,15.39
2022-08-22T05:24:51.850Z,17.10
2022-08-22T05:27:30.044Z,15.01
2022-08-22T05:30:16.553Z,14.44
2022-08-22T05:33:24.741Z,19.38
2022-08-22T05:36:19.347Z,19.38
2022-08-22T05:38:57.454Z,17.86
2022-08-22T05:41:31.850Z,15.96
2022-08-22T05:43:59.924Z,16.34
2022-08-22T05:46:51.235Z,12.92
2022-08-22T05:49:31.318Z,16.91
2022-08-22T05:52:59.269Z,17.67
2022-08-22T05:55:56.583Z,17.67
2022-08-22T05:58:51.670Z,16.72
2022-08-22T06:01:49.544Z,15.77
2022-08-22T06:04:37.099Z,15.20
2022-08-22T06:07:26.547Z,18.24
2022-08-22T06:10:16.488Z,17.48
2022-08-22T06:13:37.202Z,18.43
2022-08-22T06:16:28.555Z,19.76
2022-08-22T06:18:58.303Z,18.43
2022-08-22T06:21:37.772Z,17.67
2022-08-22T06:24:13.450Z,19.95
2022-08-22T06:26:48.591Z,19.00
2022-08-22T06:29:44.005Z,17.86
2022-08-22T06:32:47.070Z,18.81
2022-08-22T06:35:50.519Z,21.28
2022-08-22T06:38:20.300Z,19.00
2022-08-22T06:40:54.366Z,21.85
2022-08-22T06:43:24.976Z,25.46
2022-08-22T06:45:53.380Z,18.81
2022-08-22T06:48:24.216Z,17.67
2022-08-22T06:50:59.235Z,17.67
2022-08-22T06:53:37.140Z,19.00
2022-08-22T06:56:07.889Z,20.14
2022-08-22T06:58:44.147Z,19.95
2022-08-22T07:01:21.323Z,18.05
2022-08-22T07:03:56.634Z,16.34
2022-08-22T07:06:35.955Z,16.15
2022-08-22T07:09:06.894Z,19.19
2022-08-22T07:11:41.422Z,16.53
2022-08-22T07:14:12.563Z,16.53
2022-08-22T07:16:53.803Z,16.15
2022-08-22T07:19:34.509Z,16.15
2022-08-22T07:22:14.983Z,18.24
2022-08-22T07:25:01.074Z,17.86
2022-08-22T07:27:42.796Z,15.77
2022-08-22T07:30:27.227Z,17.29
2022-08-22T07:33:25.786Z,16.72
2022-08-22T07:36:02.081Z,15.01
2022-08-22T07:38:48.190Z,19.38
2022-08-22T07:41:28.693Z,14.44
2022-08-22T07:44:19.018Z,19.95
2022-08-22T07:47:18.111Z,19.38
2022-08-22T07:50:02.160Z,14.63
2022-08-22T07:52:41.671Z,15.58
2022-08-22T07:55:20.692Z,14.25
2022-08-22T07:58:04.162Z,13.30
2022-08-22T08:00:32.874Z,20.33
2022-08-22T08:03:06.468Z,16.53
2022-08-22T08:05:37.222Z,16.72
2022-08-22T08:08:16.139Z,11.02
2022-08-22T08:10:42.994Z,14.06
2022-08-22T08:13:21.601Z,10.83
2022-08-22T08:15:51.100Z,12.73
2022-08-22T08:18:25.777Z,10.64
2022-08-22T08:20:59.087Z,12.35
2022-08-22T08:23:39.558Z,10.45
2022-08-22T08:26:19.669Z,9.12
2022-08-22T08:28:52.723Z,12.54
2022-08-22T08:31:38.182Z,11.59
2022-08-22T08:34:24.995Z,11.02
2022-08-22T08:37:12.721Z,10.45
2022-08-22T08:39:51.339Z,9.12
2022-08-22T08:43:29.807Z,8.17
2022-08-22T08:46:27.175Z,8.36
2022-08-22T08:49:44.819Z,12.92
2022-08-22T08:52:34.502Z,7.22
2022-08-22T08:55:35.804Z,10.45
2022-08-22T08:58:32.103Z,12.35
2022-08-22T09:01:27.790Z,7.98
2022-08-22T09:04:24.307Z,13.49
2022-08-22T09:07:31.469Z,11.21
2022-08-22T09:10:39.243Z,11.97
2022-08-22T09:13:18.281Z,8.93
2022-08-22T09:16:05.766Z,17.29
2022-08-22T09:19:31.410Z,11.78
2022-08-22T09:22:19.629Z,11.78
2022-08-22T09:25:18.988Z,9.69
2022-08-22T09:28:08.175Z,10.64
2022-08-22T09:31:22.199Z,11.02
2022-08-22T09:34:24.073Z,10.64
2022-08-22T09:37:14.212Z,8.36
2022-08-22T09:48:38.656Z,9.31
2022-08-22T09:51:32.286Z,10.45
2022-08-22T09:54:24.791Z,10.83
2022-08-22T09:57:56.146Z,8.55
2022-08-22T10:00:38.399Z,9.50
2022-08-22T10:03:19.791Z,11.40
2022-08-22T10:06:18.267Z,12.16
2022-08-22T10:08:53.932Z,11.40
2022-08-22T10:11:42.325Z,10.26
2022-08-22T10:14:22.281Z,8.36
2022-08-22T10:17:08.429Z,11.40
2022-08-22T10:19:50.398Z,10.07
2022-08-22T10:23:12.839Z,8.55
2022-08-22T10:25:51.611Z,8.55
2022-08-22T10:28:51.033Z,8.55
2022-08-22T10:31:24.851Z,9.12
2022-08-22T10:34:20.237Z,10.45
2022-08-22T10:37:08.060Z,10.45
2022-08-22T10:40:15.461Z,8.74
2022-08-22T10:43:02.759Z,10.45
2022-08-22T10:45:37.391Z,10.45
2022-08-22T10:48:29.022Z,13.11
2022-08-22T10:51:15.257Z,9.12
2022-08-22T10:54:13.046Z,7.03
2022-08-22T10:57:06.685Z,10.45
2022-08-22T11:00:07.235Z,9.69
2022-08-22T11:02:39.499Z,9.88
2022-08-22T11:05:41.290Z,10.45
2022-08-22T11:08:22.988Z,10.45
2022-08-22T11:11:39.396Z,8.17
2022-08-22T11:14:49.184Z,9.12
2022-08-22T11:17:53.822Z,7.98
2022-08-22T11:21:07.325Z,9.88
2022-08-22T11:23:43.148Z,9.31
2022-08-22T11:26:51.287Z,8.74
2022-08-22T11:29:30.212Z,7.41
2022-08-22T11:32:35.267Z,7.98
2022-08-22T11:35:32.947Z,10.45
2022-08-22T11:38:17.962Z,5.70
2022-08-22T11:41:00.513Z,8.93
2022-08-22T11:43:50.234Z,8.74
2022-08-22T11:46:31.799Z,7.60
2022-08-22T11:49:41.443Z,8.93
2022-08-22T11:52:26.273Z,7.98
2022-08-22T11:55:38.411Z,10.45
2022-08-22T11:58:30.999Z,8.55
2022-08-22T12:01:11.821Z,8.36
2022-08-22T12:03:58.362Z,7.22
2022-08-22T12:06:39.405Z,8.93
2022-08-22T12:09:38.049Z,10.07
2022-08-22T12:12:37.831Z,7.79
2022-08-22T12:15:21.494Z,7.98
2022-08-22T12:18:43.292Z,13.49
2022-08-22T12:21:51.297Z,9.50
2022-08-22T12:24:37.737Z,7.98
2022-08-22T12:27:35.461Z,12.92
2022-08-22T12:30:27.306Z,11.78
2022-08-22T12:33:27.112Z,9.88
2022-08-22T12:36:20.580Z,10.45
2022-08-22T12:39:43.287Z,8.36
2022-08-22T12:42:25.359Z,10.26
2022-08-22T12:45:40.365Z,9.88
2022-08-22T12:48:52.283Z,7.41
2022-08-22T12:51:30.901Z,8.36
2022-08-22T12:54:48.194Z,7.98
2022-08-22T12:57:37.651Z,7.79
2022-08-22T13:00:36.904Z,10.07
2022-08-22T13:03:11.493Z,11.59
2022-08-22T13:05:43.793Z,9.31
2022-08-22T13:08:26.715Z,7.98
2022-08-22T13:11:08.111Z,8.36
2022-08-22T13:13:56.073Z,11.02
2022-08-22T13:16:36.421Z,7.03
2022-08-22T13:19:22.354Z,7.79
2022-08-22T13:21:59.781Z,8.55
2022-08-22T13:25:02.401Z,8.55
2022-08-22T13:27:50.646Z,7.03
2022-08-22T13:30:40.001Z,7.03
2022-08-22T13:33:25.676Z,8.36
2022-08-22T13:36:00.372Z,7.03
2022-08-22T13:38:34.713Z,8.36
2022-08-22T13:41:05.324Z,10.26
2022-08-22T13:43:53.236Z,8.36
2022-08-22T13:46:35.480Z,6.08
2022-08-22T13:49:09.991Z,8.55
2022-08-22T13:52:29.767Z,7.41
2022-08-22T13:55:34.053Z,8.17
2022-08-22T13:58:11.336Z,7.79
2022-08-22T14:01:25.744Z,7.98
2022-08-22T14:04:35.973Z,9.88
2022-08-22T14:07:06.073Z,8.55
2022-08-22T14:09:41.708Z,10.26
2022-08-22T14:12:27.127Z,7.98
2022-08-22T14:15:02.195Z,8.36
2022-08-22T14:17:42.976Z,7.41
2022-08-22T14:20:32.545Z,9.12
2022-08-22T14:23:29.277Z,8.17
2022-08-22T14:25:57.491Z,8.17
2022-08-22T14:28:32.324Z,8.74
2022-08-22T14:31:14.292Z,8.17
2022-08-22T14:34:04.121Z,9.50
2022-08-22T14:37:00.405Z,7.22
2022-08-22T14:39:43.597Z,7.41
2022-08-22T14:42:48.131Z,8.36
2022-08-22T14:45:24.634Z,10.07
2022-08-22T14:48:29.584Z,7.60
2022-08-22T14:51:04.134Z,10.26
2022-08-22T14:53:37.117Z,7.60
2022-08-22T14:56:27.758Z,6.27
2022-08-22T14:59:06.766Z,7.60
2022-08-22T15:02:10.875Z,9.31
2022-08-22T15:04:44.612Z,8.17
2022-08-22T15:07:24.844Z,9.69
2022-08-22T15:10:03.173Z,8.36
2022-08-22T15:12:45.175Z,7.79
2022-08-22T15:15:49.698Z,10.26
2022-08-22T15:18:28.000Z,7.60
2022-08-22T15:21:08.926Z,8.36
2022-08-22T15:23:44.999Z,8.17
2022-08-22T15:26:26.191Z,7.79
2022-08-22T15:29:22.538Z,7.79
2022-08-22T15:31:54.721Z,9.50
2022-08-22T15:34:38.322Z,10.64
2022-08-22T15:37:17.540Z,9.50
2022-08-22T15:40:35.475Z,8.17
2022-08-22T15:43:25.768Z,8.55
2022-08-22T15:46:23.289Z,7.79
2022-08-22T15:49:29.654Z,7.79
2022-08-22T15:52:03.249Z,9.88
2022-08-22T15:54:54.683Z,6.84
2022-08-22T15:57:40.502Z,9.12
2022-08-22T16:01:02.707Z,8.93
2022-08-22T16:03:34.116Z,6.46
2022-08-22T16:06:10.001Z,9.31
2022-08-22T16:08:36.620Z,7.79
2022-08-22T16:11:03.299Z,12.73
2022-08-22T16:13:30.016Z,9.31
2022-08-22T16:16:05.435Z,11.97
2022-08-22T16:18:39.306Z,7.60
2022-08-22T16:21:08.465Z,7.03
2022-08-22T16:23:51.100Z,10.64
2022-08-22T16:26:43.565Z,9.69
2022-08-22T16:29:13.474Z,9.12
2022-08-22T16:31:44.218Z,7.98
2022-08-22T16:34:17.112Z,10.45
2022-08-22T16:37:08.249Z,8.17
2022-08-22T16:39:48.531Z,11.97
2022-08-22T16:42:20.136Z,10.45
2022-08-22T16:44:58.613Z,7.79
2022-08-22T16:47:32.732Z,8.36
2022-08-22T16:50:18.424Z,8.74
2022-08-22T16:52:52.202Z,9.31
2022-08-22T16:55:31.263Z,8.55
2022-08-22T16:59:09.941Z,8.74
2022-08-22T17:02:13.167Z,7.22
2022-08-22T17:05:03.293Z,8.17
2022-08-22T17:08:06.535Z,8.74
2022-08-22T17:11:10.180Z,9.12
2022-08-22T17:13:59.824Z,7.79
2022-08-22T17:16:54.028Z,8.17
2022-08-22T17:19:58.385Z,8.36
2022-08-22T17:22:37.513Z,10.64
2022-08-22T17:25:34.751Z,8.55
2022-08-22T17:28:22.970Z,9.69
2022-08-22T17:31:24.111Z,9.31
2022-08-22T17:34:29.944Z,8.17
2022-08-22T17:37:26.042Z,7.60
2022-08-22T17:40:04.184Z,10.26
2022-08-22T17:42:53.560Z,11.21
2022-08-22T17:45:49.705Z,9.31
2022-08-22T17:48:26.124Z,12.35
2022-08-22T17:51:02.686Z,10.07
2022-08-22T17:53:47.003Z,8.17
2022-08-22T17:56:26.298Z,8.17
2022-08-22T17:59:46.671Z,8.93
2022-08-22T18:02:33.693Z,7.41
2022-08-22T18:05:19.466Z,7.41
2022-08-22T18:11:24.257Z,8.17
2022-08-22T18:14:12.395Z,7.41
2022-08-22T18:16:47.529Z,7.41
2022-08-22T18:19:23.314Z,9.31
2022-08-22T18:22:15.585Z,7.22
2022-08-22T18:24:58.092Z,8.74
2022-08-22T18:27:47.586Z,9.69
2022-08-22T18:30:31.305Z,9.12
2022-08-22T18:33:45.701Z,11.78
2022-08-22T18:36:30.307Z,11.59
2022-08-22T18:39:17.126Z,8.74
2022-08-22T18:41:54.560Z,11.78
2022-08-22T18:44:32.717Z,8.55
2022-08-22T18:47:25.275Z,9.31
2022-08-22T18:49:55.685Z,8.74
2022-08-22T18:52:37.275Z,10.26
2022-08-22T18:55:31.005Z,6.84
2022-08-22T18:58:41.664Z,7.60
2022-08-22T19:02:00.569Z,8.36
2022-08-22T19:04:53.817Z,10.83
2022-08-22T19:08:01.859Z,7.22
2022-08-22T19:11:15.422Z,9.31
2022-08-22T19:14:00.578Z,8.93
2022-08-22T19:17:15.592Z,7.22
2022-08-22T19:20:39.236Z,6.65
2022-08-22T19:23:33.799Z,7.98
2022-08-22T19:26:31.107Z,8.74
2022-08-22T19:29:08.852Z,9.69
2022-08-22T19:31:41.901Z,7.60
2022-08-22T19:34:33.900Z,8.36
2022-08-22T19:37:33.202Z,9.50
2022-08-22T19:40:09.502Z,9.12
2022-08-22T19:42:41.579Z,7.98
2022-08-22T19:45:29.052Z,9.31
2022-08-22T19:48:08.500Z,7.98
2022-08-22T19:50:38.222Z,9.31
2022-08-22T19:53:39.419Z,8.17
2022-08-22T19:56:48.279Z,9.50
2022-08-22T20:00:00.285Z,11.97
2022-08-22T20:02:50.513Z,8.93
2022-08-22T20:05:35.070Z,9.69
2022-08-22T20:08:27.563Z,8.55
2022-08-22T20:11:22.955Z,8.36
2022-08-22T20:13:50.420Z,8.74
2022-08-22T20:16:42.794Z,8.36
2022-08-22T20:19:09.923Z,9.31
2022-08-22T20:21:49.149Z,11.59
2022-08-22T20:24:28.609Z,7.60
2022-08-22T20:27:15.625Z,10.83
2022-08-22T20:29:51.340Z,7.79
2022-08-22T20:32:23.194Z,8.93
2022-08-22T20:34:57.646Z,8.36
2022-08-22T20:38:03.370Z,9.69
2022-08-22T20:40:55.919Z,11.02
2022-08-22T20:43:35.286Z,7.79
2022-08-22T20:46:23.978Z,9.31
2022-08-22T20:48:55.850Z,10.64
2022-08-22T20:51:28.007Z,8.55
2022-08-22T20:54:19.440Z,9.50
2022-08-22T20:56:53.896Z,11.02
2022-08-22T20:59:25.681Z,7.03
2022-08-22T21:02:27.432Z,8.93
2022-08-22T21:05:08.925Z,10.83
2022-08-22T21:07:47.536Z,8.17
2022-08-22T21:10:46.052Z,8.74
2022-08-22T21:13:32.416Z,8.74
2022-08-22T21:16:15.677Z,9.88
2022-08-22T21:18:53.440Z,10.45
2022-08-22T21:21:29.011Z,9.12
2022-08-22T21:24:01.268Z,7.79
2022-08-22T21:26:41.838Z,9.31
2022-08-22T21:29:14.395Z,7.98
2022-08-22T21:32:04.411Z,11.59
2022-08-22T21:34:41.118Z,8.17
2022-08-22T21:37:17.217Z,8.93
2022-08-22T21:39:50.049Z,11.02
2022-08-22T21:42:32.280Z,10.26
2022-08-22T21:45:10.934Z,16.34
2022-08-22T21:47:42.527Z,8.17
2022-08-22T21:50:20.527Z,9.69
2022-08-22T21:52:56.251Z,9.69
2022-08-22T21:55:29.673Z,8.74
2022-08-22T21:58:34.172Z,9.31
2022-08-22T22:01:31.723Z,8.93
2022-08-22T22:03:59.859Z,8.74
2022-08-22T22:06:27.832Z,10.45
2022-08-22T22:08:55.310Z,8.74
2022-08-22T22:11:22.464Z,9.12
2022-08-22T22:13:49.218Z,8.93
2022-08-22T22:16:27.967Z,11.78
2022-08-22T22:18:56.892Z,8.55
2022-08-22T22:21:23.839Z,9.69
2022-08-22T22:23:50.720Z,7.98
2022-08-22T22:26:17.555Z,11.78
2022-08-22T22:28:48.249Z,11.59
2022-08-22T22:31:18.295Z,12.92
2022-08-22T22:33:45.170Z,9.12
2022-08-22T22:36:26.723Z,10.45
2022-08-22T22:38:55.156Z,11.40
2022-08-22T22:41:25.851Z,8.93
2022-08-22T22:43:54.831Z,9.31
2022-08-22T22:46:23.272Z,9.31
2022-08-22T22:48:50.372Z,9.88
2022-08-22T22:51:17.235Z,9.31
2022-08-22T22:53:45.037Z,11.40
2022-08-22T22:56:21.673Z,14.82
2022-08-22T22:58:50.113Z,9.12
2022-08-22T23:01:26.964Z,17.67
2022-08-22T23:03:58.054Z,14.06
2022-08-22T23:06:29.752Z,10.26
2022-08-22T23:08:57.821Z,9.69
2022-08-22T23:11:30.025Z,10.26
2022-08-22T23:13:57.430Z,11.40
2022-08-22T23:16:28.607Z,11.02
2022-08-22T23:18:56.328Z,11.97
2022-08-22T23:21:28.354Z,11.78
2022-08-22T23:23:58.402Z,13.49
2022-08-22T23:26:25.938Z,9.69
2022-08-22T23:28:52.861Z,11.40
2022-08-22T23:31:34.907Z,8.36
2022-08-22T23:34:13.645Z,9.12
2022-08-22T23:36:45.239Z,12.54
2022-08-22T23:39:15.263Z,12.35
2022-08-22T23:41:44.055Z,10.83
2022-08-22T23:44:15.623Z,11.21
2022-08-22T23:46:45.390Z,11.40
2022-08-22T23:49:13.493Z,9.12
2022-08-22T23:51:42.063Z,9.69
2022-08-22T23:54:09.347Z,8.93
2022-08-22T23:56:42.023Z,8.74
2022-08-22T23:59:14.686Z,10.64
